MST,Max TemperatureF,Mean TemperatureF,Min TemperatureF,Max Dew PointF,MeanDew PointF,Min DewpointF,Max Humidity, Mean Humidity, Min Humidity, Max Sea Level PressureIn, Mean Sea Level PressureIn, Min Sea Level PressureIn, Max VisibilityMiles, Mean VisibilityMiles, Min VisibilityMiles, Max Wind SpeedMPH, Mean Wind SpeedMPH, Max Gust SpeedMPH,PrecipitationIn, CloudCover, Events, WindDirDegrees
2012-12-1,57,44,30,30,16,9,67,36,18,30.20,30.11,30.02,10,10,2,14,4,,0.00,0,,193
2012-12-2,54,40,25,34,15,8,89,36,10,30.18,30.06,29.96,10,10,7,18,3,28,0.00,0,,217
2012-12-3,52,40,28,36,28,15,84,53,35,30.25,30.08,29.93,10,10,8,12,5,18,0.00,0,,253
2012-12-4,57,40,24,30,21,13,88,49,16,30.44,30.30,30.20,10,10,7,10,3,,0.00,0,,125
2012-12-5,62,44,25,22,16,10,58,32,10,30.31,30.12,29.96,10,10,10,9,3,,0.00,0,,268
2012-12-6,55,42,28,29,20,8,74,37,20,29.99,29.90,29.79,10,10,10,14,2,,0.00,0,,273
2012-12-7,54,40,25,30,23,15,89,48,30,30.02,29.91,29.83,10,10,2,10,3,21,0.00,1,,243
2012-12-8,51,38,24,28,21,8,78,48,9,29.98,29.89,29.80,10,10,10,15,6,22,0.00,0,,227
2012-12-9,44,30,15,26,13,-1,69,39,17,30.22,29.98,29.81,10,10,7,28,11,38,0.00,1,,287
2012-12-10,45,26,8,12,0,-5,64,37,14,30.34,30.21,30.11,10,10,10,7,3,,0.00,0,,183
2012-12-11,39,24,9,12,4,-4,72,40,21,30.22,30.13,30.07,10,9,5,6,1,,0.00,0,,187
2012-12-12,39,28,16,10,3,-2,56,33,12,30.15,30.05,29.96,10,9,3,18,4,26,0.00,0,,242
2012-12-13,45,26,14,32,14,-1,84,39,16,30.06,29.90,29.68,10,10,3,21,5,22,0.03,2,Snow,176
2012-12-14,35,31,27,36,30,23,100,79,55,29.95,29.73,29.54,10,9,1,26,11,39,0.51,6,Rain-Snow,210
2012-12-15,37,26,15,32,28,12,100,82,42,29.98,29.88,29.74,10,6,1,22,7,31,0.28,7,Rain-Snow,278
2012-12-16,35,26,16,31,28,20,100,87,70,30.15,29.99,29.87,10,7,0,17,3,23,0.00,7,Fog-Snow,270
2012-12-17,33,28,24,31,25,16,89,79,60,30.17,30.08,29.95,10,10,6,15,4,,0.00,1,,184
2012-12-18,45,38,30,35,28,17,89,73,41,29.98,29.80,29.56,10,9,0,21,7,31,0.24,2,Rain-Snow,220
2012-12-19,30,22,13,36,21,0,93,72,23,30.41,29.91,29.47,10,8,1,33,16,44,0.01,4,Rain-Snow,264
2012-12-20,32,15,-2,19,11,-6,88,69,25,30.59,30.47,30.33,10,10,6,10,2,,0.00,0,,311
2012-12-21,45,22,-2,22,16,-3,88,70,20,30.42,30.33,30.21,10,10,6,5,1,,0.00,0,,249
2012-12-22,52,36,21,28,23,17,92,66,35,30.26,30.17,30.06,10,10,6,8,1,,0.00,0,,272
2012-12-23,52,36,19,26,16,8,88,52,18,30.17,30.09,29.96,10,10,7,10,4,,0.00,0,,262
2012-12-24,48,39,30,34,25,12,93,69,35,29.96,29.84,29.72,10,7,0,37,13,52,0.06,6,Fog-Rain-Snow,266
2012-12-25,32,24,16,26,15,8,85,65,42,30.15,30.08,29.85,10,10,10,16,7,22,0.00,1,,234
2012-12-26,39,28,17,23,17,12,88,58,23,30.03,29.87,29.70,10,10,2,28,6,34,0.04,1,Snow,221
2012-12-27,30,20,10,27,22,14,100,80,48,29.96,29.84,29.77,10,7,0,15,7,26,0.03,6,Fog-Snow,242
2012-12-28,32,14,-4,22,16,-2,87,72,37,30.29,30.13,29.94,10,10,3,10,7,,0.00,2,Snow,274
2012-12-29,35,18,0,18,11,-4,85,65,33,30.30,30.16,29.99,10,9,5,9,2,,0.00,0,,284
2012-12-30,37,24,10,30,22,12,100,74,22,30.00,29.84,29.71,10,7,1,24,6,31,0.08,4,Snow,212
2012-12-31,28,21,14,28,23,10,100,87,60,30.18,29.97,29.73,10,6,1,13,5,,0.04,8,Snow,264